sensor_id;sensor_type;location;lat;lon;timestamp;P1;durP1;ratioP1;P2;durP2;ratioP2
80653;SDS011;70020;45.524;10.240;2024-02-15T00:01:57;39.77;;;24.20;;
80653;SDS011;70020;45.524;10.240;2024-02-15T00:04:23;38.95;;;24.40;;
80653;SDS011;70020;45.524;10.240;2024-02-15T00:06:49;43.10;;;25.15;;
80653;SDS011;70020;45.524;10.240;2024-02-15T00:09:16;38.22;;;23.77;;
80653;SDS011;70020;45.524;10.240;2024-02-15T00:11:41;42.53;;;24.53;;
80653;SDS011;70020;45.524;10.240;2024-02-15T00:14:07;39.63;;;24.27;;
80653;SDS011;70020;45.524;10.240;2024-02-15T00:16:33;38.40;;;23.97;;
80653;SDS011;70020;45.524;10.240;2024-02-15T00:19:00;38.83;;;23.52;;
80653;SDS011;70020;45.524;10.240;2024-02-15T00:21:25;40.60;;;25.20;;
80653;SDS011;70020;45.524;10.240;2024-02-15T00:23:52;39.17;;;24.15;;
80653;SDS011;70020;45.524;10.240;2024-02-15T00:26:20;46.92;;;25.33;;
80653;SDS011;70020;45.524;10.240;2024-02-15T00:31:15;41.28;;;24.95;;
80653;SDS011;70020;45.524;10.240;2024-02-15T00:33:42;42.63;;;24.45;;
80653;SDS011;70020;45.524;10.240;2024-02-15T00:36:07;43.63;;;26.57;;
80653;SDS011;70020;45.524;10.240;2024-02-15T00:38:33;41.75;;;25.20;;
80653;SDS011;70020;45.524;10.240;2024-02-15T00:41:04;42.60;;;25.50;;
80653;SDS011;70020;45.524;10.240;2024-02-15T00:43:30;42.08;;;25.60;;
80653;SDS011;70020;45.524;10.240;2024-02-15T00:46:00;40.30;;;26.13;;
80653;SDS011;70020;45.524;10.240;2024-02-15T00:48:26;43.67;;;25.63;;
80653;SDS011;70020;45.524;10.240;2024-02-15T00:50:53;40.03;;;26.38;;
80653;SDS011;70020;45.524;10.240;2024-02-15T00:53:19;41.40;;;26.00;;
80653;SDS011;70020;45.524;10.240;2024-02-15T00:55:45;41.60;;;25.70;;
80653;SDS011;70020;45.524;10.240;2024-02-15T00:58:11;41.08;;;25.92;;
80653;SDS011;70020;45.524;10.240;2024-02-15T01:00:39;42.97;;;26.25;;
80653;SDS011;70020;45.524;10.240;2024-02-15T01:03:06;41.25;;;26.60;;
80653;SDS011;70020;45.524;10.240;2024-02-15T01:05:31;46.40;;;26.20;;
80653;SDS011;70020;45.524;10.240;2024-02-15T01:07:58;41.25;;;25.35;;
80653;SDS011;70020;45.524;10.240;2024-02-15T01:10:25;39.08;;;25.15;;
80653;SDS011;70020;45.524;10.240;2024-02-15T01:12:51;45.63;;;25.27;;
80653;SDS011;70020;45.524;10.240;2024-02-15T01:15:17;46.27;;;25.93;;
80653;SDS011;70020;45.524;10.240;2024-02-15T01:17:47;39.67;;;25.02;;
80653;SDS011;70020;45.524;10.240;2024-02-15T01:20:13;40.85;;;24.63;;
80653;SDS011;70020;45.524;10.240;2024-02-15T01:22:39;42.42;;;26.13;;
80653;SDS011;70020;45.524;10.240;2024-02-15T01:25:05;45.38;;;27.85;;
80653;SDS011;70020;45.524;10.240;2024-02-15T01:30:01;44.25;;;26.60;;
80653;SDS011;70020;45.524;10.240;2024-02-15T01:32:27;40.95;;;26.70;;
80653;SDS011;70020;45.524;10.240;2024-02-15T01:34:53;41.27;;;26.57;;
80653;SDS011;70020;45.524;10.240;2024-02-15T01:37:22;42.33;;;26.67;;
80653;SDS011;70020;45.524;10.240;2024-02-15T01:39:48;46.70;;;27.75;;
80653;SDS011;70020;45.524;10.240;2024-02-15T01:42:15;44.38;;;26.60;;
80653;SDS011;70020;45.524;10.240;2024-02-15T01:44:42;44.25;;;26.42;;
80653;SDS011;70020;45.524;10.240;2024-02-15T01:47:09;43.53;;;25.75;;
80653;SDS011;70020;45.524;10.240;2024-02-15T01:49:36;42.92;;;24.42;;
80653;SDS011;70020;45.524;10.240;2024-02-15T01:52:02;40.58;;;24.83;;
80653;SDS011;70020;45.524;10.240;2024-02-15T01:54:30;37.97;;;24.95;;
80653;SDS011;70020;45.524;10.240;2024-02-15T01:56:57;41.83;;;25.52;;
80653;SDS011;70020;45.524;10.240;2024-02-15T01:59:23;44.92;;;25.60;;
80653;SDS011;70020;45.524;10.240;2024-02-15T02:01:51;42.83;;;26.67;;
80653;SDS011;70020;45.524;10.240;2024-02-15T02:04:16;47.97;;;26.60;;
80653;SDS011;70020;45.524;10.240;2024-02-15T02:06:45;44.17;;;27.13;;
80653;SDS011;70020;45.524;10.240;2024-02-15T02:09:11;42.08;;;25.42;;
80653;SDS011;70020;45.524;10.240;2024-02-15T02:11:44;43.58;;;26.67;;
80653;SDS011;70020;45.524;10.240;2024-02-15T02:14:11;48.35;;;27.48;;
80653;SDS011;70020;45.524;10.240;2024-02-15T02:16:37;41.97;;;25.63;;
80653;SDS011;70020;45.524;10.240;2024-02-15T02:19:04;47.15;;;26.73;;
80653;SDS011;70020;45.524;10.240;2024-02-15T02:21:34;48.08;;;27.27;;
80653;SDS011;70020;45.524;10.240;2024-02-15T02:26:27;42.53;;;26.80;;
80653;SDS011;70020;45.524;10.240;2024-02-15T02:28:55;43.13;;;26.13;;
80653;SDS011;70020;45.524;10.240;2024-02-15T02:31:21;39.43;;;25.87;;
80653;SDS011;70020;45.524;10.240;2024-02-15T02:33:47;42.08;;;26.52;;
80653;SDS011;70020;45.524;10.240;2024-02-15T02:36:17;44.40;;;26.23;;
80653;SDS011;70020;45.524;10.240;2024-02-15T02:38:43;42.72;;;26.58;;
80653;SDS011;70020;45.524;10.240;2024-02-15T02:41:10;46.15;;;28.17;;
80653;SDS011;70020;45.524;10.240;2024-02-15T02:43:39;44.70;;;28.45;;
80653;SDS011;70020;45.524;10.240;2024-02-15T02:46:05;47.17;;;28.25;;
80653;SDS011;70020;45.524;10.240;2024-02-15T02:48:32;50.92;;;27.73;;
80653;SDS011;70020;45.524;10.240;2024-02-15T02:50:57;43.95;;;27.33;;
80653;SDS011;70020;45.524;10.240;2024-02-15T02:53:23;46.20;;;26.87;;
80653;SDS011;70020;45.524;10.240;2024-02-15T02:55:51;47.50;;;27.00;;
80653;SDS011;70020;45.524;10.240;2024-02-15T02:58:17;45.35;;;27.80;;
80653;SDS011;70020;45.524;10.240;2024-02-15T03:00:43;46.40;;;27.83;;
80653;SDS011;70020;45.524;10.240;2024-02-15T03:03:09;46.00;;;26.98;;
80653;SDS011;70020;45.524;10.240;2024-02-15T03:05:35;42.30;;;25.37;;
80653;SDS011;70020;45.524;10.240;2024-02-15T03:08:01;45.95;;;26.15;;
80653;SDS011;70020;45.524;10.240;2024-02-15T03:10:27;49.00;;;27.57;;
80653;SDS011;70020;45.524;10.240;2024-02-15T03:12:52;43.53;;;26.73;;
80653;SDS011;70020;45.524;10.240;2024-02-15T03:15:18;41.07;;;26.53;;
80653;SDS011;70020;45.524;10.240;2024-02-15T03:17:45;40.27;;;26.20;;
80653;SDS011;70020;45.524;10.240;2024-02-15T03:20:12;44.75;;;26.67;;
80653;SDS011;70020;45.524;10.240;2024-02-15T03:22:55;46.92;;;27.88;;
80653;SDS011;70020;45.524;10.240;2024-02-15T03:25:22;43.38;;;26.63;;
80653;SDS011;70020;45.524;10.240;2024-02-15T03:27:52;49.22;;;27.90;;
80653;SDS011;70020;45.524;10.240;2024-02-15T03:30:22;44.45;;;27.13;;
80653;SDS011;70020;45.524;10.240;2024-02-15T03:32:50;42.65;;;25.40;;
80653;SDS011;70020;45.524;10.240;2024-02-15T03:35:19;45.95;;;28.98;;
80653;SDS011;70020;45.524;10.240;2024-02-15T03:37:50;45.10;;;28.35;;
80653;SDS011;70020;45.524;10.240;2024-02-15T03:40:17;43.33;;;26.77;;
80653;SDS011;70020;45.524;10.240;2024-02-15T03:45:10;49.13;;;29.75;;
80653;SDS011;70020;45.524;10.240;2024-02-15T03:47:36;51.63;;;30.17;;
80653;SDS011;70020;45.524;10.240;2024-02-15T03:52:28;49.13;;;29.58;;
80653;SDS011;70020;45.524;10.240;2024-02-15T03:54:56;50.35;;;30.58;;
80653;SDS011;70020;45.524;10.240;2024-02-15T03:57:22;48.58;;;31.27;;
80653;SDS011;70020;45.524;10.240;2024-02-15T03:59:51;47.90;;;29.90;;
80653;SDS011;70020;45.524;10.240;2024-02-15T04:02:19;51.10;;;30.95;;
80653;SDS011;70020;45.524;10.240;2024-02-15T04:04:45;51.50;;;29.98;;
80653;SDS011;70020;45.524;10.240;2024-02-15T04:07:15;48.22;;;29.58;;
80653;SDS011;70020;45.524;10.240;2024-02-15T04:09:42;54.67;;;32.00;;
80653;SDS011;70020;45.524;10.240;2024-02-15T04:12:07;47.20;;;29.67;;
80653;SDS011;70020;45.524;10.240;2024-02-15T04:17:00;48.35;;;31.00;;
80653;SDS011;70020;45.524;10.240;2024-02-15T04:19:27;50.95;;;30.73;;
80653;SDS011;70020;45.524;10.240;2024-02-15T04:21:53;48.50;;;30.17;;
80653;SDS011;70020;45.524;10.240;2024-02-15T04:24:21;52.13;;;31.30;;
80653;SDS011;70020;45.524;10.240;2024-02-15T04:26:47;51.70;;;31.40;;
80653;SDS011;70020;45.524;10.240;2024-02-15T04:29:16;49.88;;;32.10;;
80653;SDS011;70020;45.524;10.240;2024-02-15T04:31:42;52.50;;;31.98;;
80653;SDS011;70020;45.524;10.240;2024-02-15T04:34:08;48.83;;;30.00;;
80653;SDS011;70020;45.524;10.240;2024-02-15T04:36:35;51.28;;;33.30;;
80653;SDS011;70020;45.524;10.240;2024-02-15T04:41:27;51.97;;;30.73;;
80653;SDS011;70020;45.524;10.240;2024-02-15T04:43:54;53.00;;;31.90;;
80653;SDS011;70020;45.524;10.240;2024-02-15T04:46:19;52.27;;;34.53;;
80653;SDS011;70020;45.524;10.240;2024-02-15T04:48:49;55.80;;;36.25;;
80653;SDS011;70020;45.524;10.240;2024-02-15T04:51:15;53.60;;;33.07;;
80653;SDS011;70020;45.524;10.240;2024-02-15T04:53:44;54.13;;;34.72;;
80653;SDS011;70020;45.524;10.240;2024-02-15T04:56:14;54.95;;;35.25;;
80653;SDS011;70020;45.524;10.240;2024-02-15T04:58:41;54.92;;;32.78;;
80653;SDS011;70020;45.524;10.240;2024-02-15T05:01:16;54.05;;;34.90;;
80653;SDS011;70020;45.524;10.240;2024-02-15T05:03:43;54.65;;;33.40;;
80653;SDS011;70020;45.524;10.240;2024-02-15T05:06:09;57.80;;;35.50;;
80653;SDS011;70020;45.524;10.240;2024-02-15T05:08:40;56.92;;;35.00;;
80653;SDS011;70020;45.524;10.240;2024-02-15T05:11:09;57.05;;;33.55;;
80653;SDS011;70020;45.524;10.240;2024-02-15T05:13:47;53.97;;;33.53;;
80653;SDS011;70020;45.524;10.240;2024-02-15T05:16:17;52.17;;;32.42;;
80653;SDS011;70020;45.524;10.240;2024-02-15T05:21:10;55.05;;;33.15;;
80653;SDS011;70020;45.524;10.240;2024-02-15T05:23:37;55.65;;;34.22;;
80653;SDS011;70020;45.524;10.240;2024-02-15T05:26:04;61.03;;;36.65;;
80653;SDS011;70020;45.524;10.240;2024-02-15T05:28:31;56.00;;;34.85;;
80653;SDS011;70020;45.524;10.240;2024-02-15T05:33:50;51.10;;;29.55;;
80653;SDS011;70020;45.524;10.240;2024-02-15T05:36:18;49.78;;;30.00;;
80653;SDS011;70020;45.524;10.240;2024-02-15T05:38:45;50.00;;;29.77;;
80653;SDS011;70020;45.524;10.240;2024-02-15T05:41:12;49.30;;;28.38;;
80653;SDS011;70020;45.524;10.240;2024-02-15T05:43:41;46.93;;;29.50;;
80653;SDS011;70020;45.524;10.240;2024-02-15T05:46:07;51.10;;;29.25;;
80653;SDS011;70020;45.524;10.240;2024-02-15T05:48:36;47.50;;;29.15;;
80653;SDS011;70020;45.524;10.240;2024-02-15T05:51:11;50.22;;;29.20;;
80653;SDS011;70020;45.524;10.240;2024-02-15T05:53:48;50.83;;;30.52;;
80653;SDS011;70020;45.524;10.240;2024-02-15T05:56:17;53.35;;;30.60;;
80653;SDS011;70020;45.524;10.240;2024-02-15T05:58:44;51.28;;;31.67;;
80653;SDS011;70020;45.524;10.240;2024-02-15T06:01:10;45.42;;;29.98;;
80653;SDS011;70020;45.524;10.240;2024-02-15T06:03:37;46.90;;;29.15;;
80653;SDS011;70020;45.524;10.240;2024-02-15T06:06:05;52.47;;;30.27;;
80653;SDS011;70020;45.524;10.240;2024-02-15T06:08:34;53.50;;;30.88;;
80653;SDS011;70020;45.524;10.240;2024-02-15T06:13:29;45.50;;;28.52;;
80653;SDS011;70020;45.524;10.240;2024-02-15T06:15:55;46.83;;;28.85;;
80653;SDS011;70020;45.524;10.240;2024-02-15T06:18:21;54.63;;;31.02;;
80653;SDS011;70020;45.524;10.240;2024-02-15T06:20:53;52.15;;;29.48;;
80653;SDS011;70020;45.524;10.240;2024-02-15T06:23:19;52.90;;;30.73;;
80653;SDS011;70020;45.524;10.240;2024-02-15T06:25:47;48.43;;;28.83;;
80653;SDS011;70020;45.524;10.240;2024-02-15T06:28:16;48.92;;;29.92;;
80653;SDS011;70020;45.524;10.240;2024-02-15T06:31:05;53.83;;;30.55;;
80653;SDS011;70020;45.524;10.240;2024-02-15T06:33:51;50.00;;;29.63;;
80653;SDS011;70020;45.524;10.240;2024-02-15T06:36:39;51.33;;;29.88;;
80653;SDS011;70020;45.524;10.240;2024-02-15T06:39:29;51.15;;;30.20;;
80653;SDS011;70020;45.524;10.240;2024-02-15T06:42:06;52.90;;;28.00;;
80653;SDS011;70020;45.524;10.240;2024-02-15T06:44:36;53.80;;;27.65;;
80653;SDS011;70020;45.524;10.240;2024-02-15T06:47:02;49.90;;;28.60;;
80653;SDS011;70020;45.524;10.240;2024-02-15T06:49:36;47.60;;;27.80;;
80653;SDS011;70020;45.524;10.240;2024-02-15T06:52:05;52.03;;;29.65;;
80653;SDS011;70020;45.524;10.240;2024-02-15T06:54:32;52.38;;;29.33;;
80653;SDS011;70020;45.524;10.240;2024-02-15T06:56:58;53.80;;;28.88;;
80653;SDS011;70020;45.524;10.240;2024-02-15T06:59:23;42.30;;;25.97;;
80653;SDS011;70020;45.524;10.240;2024-02-15T07:01:50;45.17;;;27.13;;
80653;SDS011;70020;45.524;10.240;2024-02-15T07:04:17;47.55;;;27.88;;
80653;SDS011;70020;45.524;10.240;2024-02-15T07:06:44;55.35;;;29.23;;
80653;SDS011;70020;45.524;10.240;2024-02-15T07:09:12;68.53;;;30.17;;
80653;SDS011;70020;45.524;10.240;2024-02-15T07:11:40;58.83;;;29.17;;
80653;SDS011;70020;45.524;10.240;2024-02-15T07:14:05;53.40;;;28.97;;
80653;SDS011;70020;45.524;10.240;2024-02-15T07:18:58;62.25;;;33.95;;
80653;SDS011;70020;45.524;10.240;2024-02-15T07:21:24;61.08;;;32.08;;
80653;SDS011;70020;45.524;10.240;2024-02-15T07:23:51;45.70;;;28.27;;
80653;SDS011;70020;45.524;10.240;2024-02-15T07:28:48;56.08;;;30.58;;
80653;SDS011;70020;45.524;10.240;2024-02-15T07:31:15;44.78;;;27.85;;
80653;SDS011;70020;45.524;10.240;2024-02-15T07:33:41;48.87;;;28.20;;
80653;SDS011;70020;45.524;10.240;2024-02-15T07:36:08;44.42;;;26.95;;
80653;SDS011;70020;45.524;10.240;2024-02-15T07:38:34;44.25;;;27.38;;
80653;SDS011;70020;45.524;10.240;2024-02-15T07:41:00;47.00;;;27.37;;
80653;SDS011;70020;45.524;10.240;2024-02-15T07:43:25;44.30;;;27.07;;
80653;SDS011;70020;45.524;10.240;2024-02-15T07:45:51;52.38;;;30.40;;
80653;SDS011;70020;45.524;10.240;2024-02-15T07:48:20;52.50;;;31.93;;
80653;SDS011;70020;45.524;10.240;2024-02-15T07:50:47;55.63;;;32.50;;
80653;SDS011;70020;45.524;10.240;2024-02-15T07:53:13;51.67;;;33.08;;
80653;SDS011;70020;45.524;10.240;2024-02-15T07:55:39;58.80;;;34.78;;
80653;SDS011;70020;45.524;10.240;2024-02-15T07:58:06;53.55;;;33.53;;
80653;SDS011;70020;45.524;10.240;2024-02-15T08:00:32;63.22;;;35.40;;
80653;SDS011;70020;45.524;10.240;2024-02-15T08:02:58;65.27;;;39.37;;
80653;SDS011;70020;45.524;10.240;2024-02-15T08:05:24;61.05;;;38.35;;
80653;SDS011;70020;45.524;10.240;2024-02-15T08:07:50;61.55;;;39.33;;
80653;SDS011;70020;45.524;10.240;2024-02-15T08:10:17;62.78;;;39.08;;
80653;SDS011;70020;45.524;10.240;2024-02-15T08:12:44;64.80;;;38.38;;
80653;SDS011;70020;45.524;10.240;2024-02-15T08:15:11;63.15;;;38.60;;
80653;SDS011;70020;45.524;10.240;2024-02-15T08:17:41;59.30;;;37.17;;
80653;SDS011;70020;45.524;10.240;2024-02-15T08:20:10;64.80;;;36.90;;
80653;SDS011;70020;45.524;10.240;2024-02-15T08:22:36;62.55;;;37.55;;
80653;SDS011;70020;45.524;10.240;2024-02-15T08:25:08;63.38;;;37.70;;
80653;SDS011;70020;45.524;10.240;2024-02-15T08:27:36;65.38;;;38.17;;
80653;SDS011;70020;45.524;10.240;2024-02-15T08:30:06;65.80;;;39.25;;
80653;SDS011;70020;45.524;10.240;2024-02-15T08:32:34;65.90;;;36.88;;
80653;SDS011;70020;45.524;10.240;2024-02-15T08:35:00;70.60;;;37.35;;
80653;SDS011;70020;45.524;10.240;2024-02-15T08:37:25;56.07;;;35.93;;
80653;SDS011;70020;45.524;10.240;2024-02-15T08:39:51;61.60;;;36.23;;
80653;SDS011;70020;45.524;10.240;2024-02-15T08:42:17;63.00;;;33.70;;
80653;SDS011;70020;45.524;10.240;2024-02-15T08:44:47;60.70;;;34.70;;
80653;SDS011;70020;45.524;10.240;2024-02-15T08:47:19;57.58;;;32.38;;
80653;SDS011;70020;45.524;10.240;2024-02-15T08:49:44;59.20;;;33.57;;
80653;SDS011;70020;45.524;10.240;2024-02-15T08:52:11;51.38;;;31.08;;
80653;SDS011;70020;45.524;10.240;2024-02-15T08:54:37;50.53;;;29.90;;
80653;SDS011;70020;45.524;10.240;2024-02-15T08:57:09;53.38;;;30.60;;
80653;SDS011;70020;45.524;10.240;2024-02-15T08:59:34;55.67;;;32.73;;
80653;SDS011;70020;45.524;10.240;2024-02-15T09:02:00;51.15;;;29.50;;
80653;SDS011;70020;45.524;10.240;2024-02-15T09:04:27;51.85;;;29.75;;
80653;SDS011;70020;45.524;10.240;2024-02-15T09:06:57;47.80;;;29.15;;
80653;SDS011;70020;45.524;10.240;2024-02-15T09:09:24;50.30;;;29.45;;
80653;SDS011;70020;45.524;10.240;2024-02-15T09:11:51;48.63;;;29.00;;
80653;SDS011;70020;45.524;10.240;2024-02-15T09:14:16;59.33;;;29.47;;
80653;SDS011;70020;45.524;10.240;2024-02-15T09:16:42;45.50;;;27.95;;
80653;SDS011;70020;45.524;10.240;2024-02-15T09:19:09;50.10;;;30.10;;
80653;SDS011;70020;45.524;10.240;2024-02-15T09:21:35;49.22;;;29.67;;
80653;SDS011;70020;45.524;10.240;2024-02-15T09:26:28;49.30;;;28.77;;
80653;SDS011;70020;45.524;10.240;2024-02-15T09:28:53;52.07;;;30.33;;
80653;SDS011;70020;45.524;10.240;2024-02-15T09:31:20;55.05;;;30.33;;
80653;SDS011;70020;45.524;10.240;2024-02-15T09:33:47;47.97;;;29.40;;
80653;SDS011;70020;45.524;10.240;2024-02-15T09:36:15;52.58;;;30.00;;
80653;SDS011;70020;45.524;10.240;2024-02-15T09:38:41;48.83;;;29.77;;
80653;SDS011;70020;45.524;10.240;2024-02-15T09:41:07;46.15;;;30.73;;
80653;SDS011;70020;45.524;10.240;2024-02-15T09:43:34;56.37;;;30.77;;
80653;SDS011;70020;45.524;10.240;2024-02-15T09:46:20;51.10;;;31.05;;
80653;SDS011;70020;45.524;10.240;2024-02-15T09:48:47;48.58;;;31.77;;
80653;SDS011;70020;45.524;10.240;2024-02-15T09:51:16;49.97;;;30.67;;
80653;SDS011;70020;45.524;10.240;2024-02-15T09:53:43;53.22;;;30.88;;
80653;SDS011;70020;45.524;10.240;2024-02-15T09:56:12;51.03;;;31.65;;
80653;SDS011;70020;45.524;10.240;2024-02-15T09:58:39;51.08;;;31.42;;
80653;SDS011;70020;45.524;10.240;2024-02-15T10:01:06;50.47;;;32.03;;
80653;SDS011;70020;45.524;10.240;2024-02-15T10:03:37;50.30;;;30.80;;
80653;SDS011;70020;45.524;10.240;2024-02-15T10:06:05;49.70;;;31.77;;
80653;SDS011;70020;45.524;10.240;2024-02-15T10:08:31;51.57;;;31.90;;
80653;SDS011;70020;45.524;10.240;2024-02-15T10:11:06;52.15;;;32.65;;
80653;SDS011;70020;45.524;10.240;2024-02-15T10:13:33;55.38;;;32.10;;
80653;SDS011;70020;45.524;10.240;2024-02-15T10:15:59;48.80;;;30.48;;
80653;SDS011;70020;45.524;10.240;2024-02-15T10:18:49;53.83;;;32.42;;
80653;SDS011;70020;45.524;10.240;2024-02-15T10:21:27;49.78;;;31.33;;
80653;SDS011;70020;45.524;10.240;2024-02-15T10:24:05;52.92;;;31.02;;
80653;SDS011;70020;45.524;10.240;2024-02-15T10:26:31;54.53;;;31.25;;
80653;SDS011;70020;45.524;10.240;2024-02-15T10:31:36;48.17;;;29.35;;
80653;SDS011;70020;45.524;10.240;2024-02-15T10:34:06;51.63;;;30.02;;
80653;SDS011;70020;45.524;10.240;2024-02-15T10:36:33;55.03;;;30.77;;
80653;SDS011;70020;45.524;10.240;2024-02-15T10:41:45;47.47;;;29.30;;
80653;SDS011;70020;45.524;10.240;2024-02-15T10:44:13;48.00;;;30.55;;
80653;SDS011;70020;45.524;10.240;2024-02-15T10:46:46;46.42;;;29.88;;
80653;SDS011;70020;45.524;10.240;2024-02-15T10:49:16;47.35;;;30.98;;
80653;SDS011;70020;45.524;10.240;2024-02-15T10:51:45;56.33;;;32.60;;
80653;SDS011;70020;45.524;10.240;2024-02-15T10:57:20;50.78;;;31.30;;
80653;SDS011;70020;45.524;10.240;2024-02-15T10:59:57;48.63;;;30.25;;
80653;SDS011;70020;45.524;10.240;2024-02-15T11:02:36;53.33;;;30.40;;
80653;SDS011;70020;45.524;10.240;2024-02-15T11:05:06;54.58;;;33.30;;
80653;SDS011;70020;45.524;10.240;2024-02-15T11:07:37;54.90;;;33.10;;
80653;SDS011;70020;45.524;10.240;2024-02-15T11:10:04;52.90;;;31.85;;
80653;SDS011;70020;45.524;10.240;2024-02-15T11:12:35;53.03;;;32.65;;
80653;SDS011;70020;45.524;10.240;2024-02-15T11:15:02;54.38;;;33.33;;
80653;SDS011;70020;45.524;10.240;2024-02-15T11:23:00;54.55;;;31.75;;
80653;SDS011;70020;45.524;10.240;2024-02-15T11:25:46;49.75;;;33.17;;
80653;SDS011;70020;45.524;10.240;2024-02-15T11:30:47;54.30;;;32.53;;
80653;SDS011;70020;45.524;10.240;2024-02-15T11:33:27;46.47;;;32.20;;
80653;SDS011;70020;45.524;10.240;2024-02-15T11:36:04;54.25;;;33.40;;
80653;SDS011;70020;45.524;10.240;2024-02-15T11:38:36;53.90;;;34.72;;
80653;SDS011;70020;45.524;10.240;2024-02-15T11:41:05;55.63;;;33.60;;
80653;SDS011;70020;45.524;10.240;2024-02-15T11:46:21;50.33;;;33.50;;
80653;SDS011;70020;45.524;10.240;2024-02-15T11:48:49;49.03;;;32.35;;
80653;SDS011;70020;45.524;10.240;2024-02-15T11:51:29;52.47;;;35.28;;
80653;SDS011;70020;45.524;10.240;2024-02-15T11:54:12;52.97;;;33.20;;
80653;SDS011;70020;45.524;10.240;2024-02-15T11:59:09;56.38;;;34.42;;
80653;SDS011;70020;45.524;10.240;2024-02-15T12:01:43;52.35;;;34.13;;
80653;SDS011;70020;45.524;10.240;2024-02-15T12:04:28;49.58;;;33.85;;
80653;SDS011;70020;45.524;10.240;2024-02-15T12:07:13;52.67;;;34.80;;
80653;SDS011;70020;45.524;10.240;2024-02-15T12:09:58;53.50;;;35.53;;
80653;SDS011;70020;45.524;10.240;2024-02-15T12:12:50;57.65;;;35.30;;
80653;SDS011;70020;45.524;10.240;2024-02-15T12:15:34;55.53;;;35.53;;
80653;SDS011;70020;45.524;10.240;2024-02-15T12:18:18;54.75;;;35.95;;
80653;SDS011;70020;45.524;10.240;2024-02-15T12:21:02;54.65;;;35.17;;
80653;SDS011;70020;45.524;10.240;2024-02-15T12:23:29;57.28;;;35.30;;
80653;SDS011;70020;45.524;10.240;2024-02-15T12:25:58;51.95;;;33.25;;
80653;SDS011;70020;45.524;10.240;2024-02-15T12:28:24;52.53;;;34.40;;
80653;SDS011;70020;45.524;10.240;2024-02-15T12:30:54;50.47;;;34.30;;
80653;SDS011;70020;45.524;10.240;2024-02-15T12:33:23;53.15;;;34.95;;
80653;SDS011;70020;45.524;10.240;2024-02-15T12:35:49;56.63;;;35.10;;
80653;SDS011;70020;45.524;10.240;2024-02-15T12:38:16;58.22;;;36.13;;
80653;SDS011;70020;45.524;10.240;2024-02-15T12:40:42;53.47;;;34.85;;
80653;SDS011;70020;45.524;10.240;2024-02-15T12:43:11;57.20;;;35.92;;
80653;SDS011;70020;45.524;10.240;2024-02-15T12:45:38;54.75;;;36.47;;
80653;SDS011;70020;45.524;10.240;2024-02-15T12:48:06;56.38;;;36.30;;
80653;SDS011;70020;45.524;10.240;2024-02-15T12:50:33;56.72;;;36.45;;
80653;SDS011;70020;45.524;10.240;2024-02-15T12:52:59;54.40;;;36.08;;
80653;SDS011;70020;45.524;10.240;2024-02-15T12:55:28;61.40;;;37.88;;
80653;SDS011;70020;45.524;10.240;2024-02-15T12:57:59;58.80;;;36.20;;
80653;SDS011;70020;45.524;10.240;2024-02-15T13:00:28;52.25;;;35.97;;
80653;SDS011;70020;45.524;10.240;2024-02-15T13:02:59;57.15;;;36.42;;
80653;SDS011;70020;45.524;10.240;2024-02-15T13:05:28;55.63;;;36.25;;
80653;SDS011;70020;45.524;10.240;2024-02-15T13:07:55;53.75;;;35.78;;
80653;SDS011;70020;45.524;10.240;2024-02-15T13:10:21;59.97;;;36.80;;
80653;SDS011;70020;45.524;10.240;2024-02-15T13:12:48;57.28;;;36.85;;
80653;SDS011;70020;45.524;10.240;2024-02-15T13:15:16;53.55;;;35.10;;
80653;SDS011;70020;45.524;10.240;2024-02-15T13:17:52;61.40;;;36.35;;
80653;SDS011;70020;45.524;10.240;2024-02-15T13:20:21;56.80;;;37.40;;
80653;SDS011;70020;45.524;10.240;2024-02-15T13:23:01;55.63;;;36.70;;
80653;SDS011;70020;45.524;10.240;2024-02-15T13:25:37;56.67;;;35.80;;
80653;SDS011;70020;45.524;10.240;2024-02-15T13:28:05;57.03;;;35.30;;
80653;SDS011;70020;45.524;10.240;2024-02-15T13:30:31;54.90;;;35.28;;
80653;SDS011;70020;45.524;10.240;2024-02-15T13:32:57;56.97;;;35.25;;
80653;SDS011;70020;45.524;10.240;2024-02-15T13:35:24;57.28;;;35.53;;
80653;SDS011;70020;45.524;10.240;2024-02-15T13:37:51;54.53;;;35.67;;
80653;SDS011;70020;45.524;10.240;2024-02-15T13:40:18;53.10;;;34.40;;
80653;SDS011;70020;45.524;10.240;2024-02-15T13:42:47;55.47;;;34.38;;
80653;SDS011;70020;45.524;10.240;2024-02-15T13:50:16;54.83;;;34.67;;
80653;SDS011;70020;45.524;10.240;2024-02-15T13:52:45;67.82;;;38.33;;
80653;SDS011;70020;45.524;10.240;2024-02-15T13:55:15;55.35;;;34.97;;
80653;SDS011;70020;45.524;10.240;2024-02-15T13:57:43;51.45;;;34.45;;
80653;SDS011;70020;45.524;10.240;2024-02-15T14:00:12;49.05;;;33.28;;
80653;SDS011;70020;45.524;10.240;2024-02-15T14:02:42;50.70;;;32.15;;
80653;SDS011;70020;45.524;10.240;2024-02-15T14:05:10;52.80;;;34.20;;
80653;SDS011;70020;45.524;10.240;2024-02-15T14:07:37;50.63;;;32.90;;
80653;SDS011;70020;45.524;10.240;2024-02-15T14:10:04;49.40;;;32.78;;
80653;SDS011;70020;45.524;10.240;2024-02-15T14:12:30;51.63;;;33.58;;
80653;SDS011;70020;45.524;10.240;2024-02-15T14:14:56;52.38;;;34.17;;
80653;SDS011;70020;45.524;10.240;2024-02-15T14:17:21;51.20;;;33.25;;
80653;SDS011;70020;45.524;10.240;2024-02-15T14:19:48;52.50;;;32.92;;
80653;SDS011;70020;45.524;10.240;2024-02-15T14:22:15;52.53;;;32.25;;
80653;SDS011;70020;45.524;10.240;2024-02-15T14:24:43;50.45;;;32.35;;
80653;SDS011;70020;45.524;10.240;2024-02-15T14:27:09;55.47;;;36.17;;
80653;SDS011;70020;45.524;10.240;2024-02-15T14:29:35;52.72;;;32.83;;
80653;SDS011;70020;45.524;10.240;2024-02-15T14:32:03;51.20;;;33.30;;
80653;SDS011;70020;45.524;10.240;2024-02-15T14:34:48;52.38;;;33.97;;
80653;SDS011;70020;45.524;10.240;2024-02-15T14:37:13;53.25;;;34.15;;
80653;SDS011;70020;45.524;10.240;2024-02-15T14:39:42;50.97;;;33.10;;
80653;SDS011;70020;45.524;10.240;2024-02-15T14:42:07;53.58;;;34.45;;
80653;SDS011;70020;45.524;10.240;2024-02-15T14:44:33;53.33;;;33.60;;
80653;SDS011;70020;45.524;10.240;2024-02-15T14:46:59;55.63;;;35.07;;
80653;SDS011;70020;45.524;10.240;2024-02-15T14:49:25;53.38;;;34.63;;
80653;SDS011;70020;45.524;10.240;2024-02-15T14:51:51;53.67;;;35.72;;
80653;SDS011;70020;45.524;10.240;2024-02-15T14:54:17;52.17;;;34.50;;
80653;SDS011;70020;45.524;10.240;2024-02-15T14:56:44;52.95;;;34.30;;
80653;SDS011;70020;45.524;10.240;2024-02-15T14:59:10;54.85;;;34.33;;
80653;SDS011;70020;45.524;10.240;2024-02-15T15:04:02;47.72;;;32.63;;
80653;SDS011;70020;45.524;10.240;2024-02-15T15:06:30;52.80;;;33.80;;
80653;SDS011;70020;45.524;10.240;2024-02-15T15:09:14;53.63;;;34.53;;
80653;SDS011;70020;45.524;10.240;2024-02-15T15:11:58;49.15;;;33.55;;
80653;SDS011;70020;45.524;10.240;2024-02-15T15:14:42;53.13;;;35.58;;
80653;SDS011;70020;45.524;10.240;2024-02-15T15:17:10;58.00;;;37.70;;
80653;SDS011;70020;45.524;10.240;2024-02-15T15:19:37;51.70;;;34.38;;